NCAR-RAP Real-Time Weather Data

Output produced by METARs form (24 July 2017  08:52 UTC)
found at http://weather.rap.ucar.edu/surface/
 
Conditions at: KSRQ observed 24 July 2017  07:53 UTC
Temperature: 24.4°C (76°F)
Dewpoint: 23.3°C (74°F) [RH = 94%]
Pressure (altimeter): 30.00 inches Hg (1016.0 mb)
[Sea-level pressure: 1015.7 mb]
Winds: calm
Visibility: 10 or more miles (16+ km)
Ceiling: at least 12,000 feet AGL
Clouds: sky clear below 12,000 feet AGL
Present Weather: automated observation with no human augmentation;
there may or may not be significant weather present at this time
KSRQ 240753Z AUTO 00000KT 10SM CLR 24/23 A3000 RMK AO2 SLP157 T02440233

Conditions at: KSRQ observed 24 July 2017  06:53 UTC
Temperature: 25.0°C (77°F)
Dewpoint: 23.9°C (75°F) [RH = 94%]
Pressure (altimeter): 30.01 inches Hg (1016.3 mb)
[Sea-level pressure: 1016.1 mb]
Winds: from the ESE (120 degrees) at 3 MPH (3 knots; 1.6 m/s)
Visibility: 10 or more miles (16+ km)
Ceiling: at least 12,000 feet AGL
Clouds: few clouds at 2600 feet AGL
Present Weather: automated observation with no human augmentation;
there may or may not be significant weather present at this time
KSRQ 240653Z AUTO 12003KT 10SM FEW026 25/24 A3001 RMK AO2 SLP161 T02500239

Conditions at: KSRQ observed 24 July 2017  06:44 UTC
Temperature: 25.0°C (77°F)
Dewpoint: 23.9°C (75°F) [RH = 94%]
Pressure (altimeter): 30.01 inches Hg (1016.3 mb)
Winds: from the SE (130 degrees) at 5 MPH (4 knots; 2.1 m/s)
Visibility: 10 or more miles (16+ km)
Ceiling: at least 12,000 feet AGL
Clouds: few clouds at 2400 feet AGL
scattered clouds at 3100 feet AGL
Present Weather: automated observation with no human augmentation;
there may or may not be significant weather present at this time
KSRQ 240644Z AUTO 13004KT 10SM FEW024 SCT031 25/24 A3001 RMK AO2 T02500239

Conditions at: KSRQ observed 24 July 2017  06:28 UTC
Temperature: 25.6°C (78°F)
Dewpoint: 23.9°C (75°F) [RH = 90%]
Pressure (altimeter): 30.01 inches Hg (1016.3 mb)
Winds: from the SE (130 degrees) at 5 MPH (4 knots; 2.1 m/s)
Visibility: 10 or more miles (16+ km)
Ceiling: 2900 feet AGL
Clouds: scattered clouds at 2300 feet AGL
broken clouds at 2900 feet AGL
broken clouds at 3600 feet AGL
Present Weather: automated observation with no human augmentation;
there may or may not be significant weather present at this time
KSRQ 240628Z AUTO 13004KT 10SM SCT023 BKN029 BKN036 26/24 A3001 RMK AO2 T02560239

Conditions at: KSRQ observed 24 July 2017  05:53 UTC
Temperature: 25.6°C (78°F)
Dewpoint: 23.9°C (75°F) [RH = 90%]
Pressure (altimeter): 30.01 inches Hg (1016.3 mb)
[Sea-level pressure: 1016.3 mb]
Winds: from the ESE (110 degrees) at 5 MPH (4 knots; 2.1 m/s)
Visibility: 10 or more miles (16+ km)
Ceiling: at least 12,000 feet AGL
Clouds: sky clear below 12,000 feet AGL
Present Weather: automated observation with no human augmentation;
there may or may not be significant weather present at this time
KSRQ 240553Z AUTO 11004KT 10SM CLR 26/24 A3001 RMK AO2 SLP163 T02560239 10283 20256 50003

Conditions at: KSRQ observed 24 July 2017  04:53 UTC
Temperature: 25.6°C (78°F)
Dewpoint: 23.9°C (75°F) [RH = 90%]
Pressure (altimeter): 30.03 inches Hg (1017.0 mb)
[Sea-level pressure: 1016.7 mb]
Winds: from the SE (130 degrees) at 6 MPH (5 knots; 2.6 m/s)
Visibility: 10 or more miles (16+ km)
Ceiling: at least 12,000 feet AGL
Clouds: sky clear below 12,000 feet AGL
Present Weather: automated observation with no human augmentation;
there may or may not be significant weather present at this time
KSRQ 240453Z AUTO 13005KT 10SM CLR 26/24 A3003 RMK AO2 SLP167 T02560239 403000228

Conditions at: KSRQ observed 24 July 2017  03:53 UTC
Temperature: 25.6°C (78°F)
Dewpoint: 23.9°C (75°F) [RH = 90%]
Pressure (altimeter): 30.03 inches Hg (1017.0 mb)
[Sea-level pressure: 1016.8 mb]
Winds: from the SE (130 degrees) at 7 MPH (6 knots; 3.1 m/s)
Visibility: 10 or more miles (16+ km)
Ceiling: at least 12,000 feet AGL
Clouds: sky clear below 12,000 feet AGL
Present Weather: automated observation with no human augmentation;
there may or may not be significant weather present at this time
KSRQ 240353Z AUTO 13006KT 10SM CLR 26/24 A3003 RMK AO2 SLP168 T02560239

Conditions at: KSRQ observed 24 July 2017  02:53 UTC
Temperature: 25.6°C (78°F)
Dewpoint: 23.9°C (75°F) [RH = 90%]
Pressure (altimeter): 30.00 inches Hg (1016.0 mb)
[Sea-level pressure: 1015.9 mb]
Winds: from the SE (140 degrees) at 6 MPH (5 knots; 2.6 m/s)
Visibility: 10 or more miles (16+ km)
Ceiling: at least 12,000 feet AGL
Clouds: sky clear below 12,000 feet AGL
Present Weather: no significant weather observed at this time
KSRQ 240253Z 14005KT 10SM CLR 26/24 A3000 RMK AO2 SLP159 T02560239 53007

Conditions at: KSRQ observed 24 July 2017  01:53 UTC
Temperature: 26.7°C (80°F)
Dewpoint: 23.9°C (75°F) [RH = 85%]
Pressure (altimeter): 29.99 inches Hg (1015.7 mb)
[Sea-level pressure: 1015.3 mb]
Winds: from the SSE (160 degrees) at 5 MPH (4 knots; 2.1 m/s)
Visibility: 10 or more miles (16+ km)
Ceiling: at least 12,000 feet AGL
Clouds: sky clear below 12,000 feet AGL
Present Weather: no significant weather observed at this time
KSRQ 240153Z 16004KT 10SM CLR 27/24 A2999 RMK AO2 SLP153 T02670239

Conditions at: KSRQ observed 24 July 2017  00:53 UTC
Temperature: 27.2°C (81°F)
Dewpoint: 24.4°C (76°F) [RH = 85%]
Pressure (altimeter): 29.98 inches Hg (1015.3 mb)
[Sea-level pressure: 1015.1 mb]
Winds: from the SSE (160 degrees) at 6 MPH (5 knots; 2.6 m/s)
Visibility: 10 or more miles (16+ km)
Ceiling: at least 12,000 feet AGL
Clouds: sky clear below 12,000 feet AGL
Present Weather: no significant weather observed at this time
KSRQ 240053Z 16005KT 10SM CLR 27/24 A2998 RMK AO2 SLP151 T02720244

Conditions at: KSRQ observed 23 July 2017  23:53 UTC
Temperature: 28.3°C (83°F)
Dewpoint: 23.9°C (75°F) [RH = 77%]
Pressure (altimeter): 29.98 inches Hg (1015.3 mb)
[Sea-level pressure: 1015.2 mb]
Winds: from the SSE (160 degrees) at 6 MPH (5 knots; 2.6 m/s)
Visibility: 10 or more miles (16+ km)
Ceiling: at least 12,000 feet AGL
Clouds: sky clear below 12,000 feet AGL
Present Weather: no significant weather observed at this time
KSRQ 232353Z 16005KT 10SM CLR 28/24 A2998 RMK AO2 SLP152 60000 T02830239 10300 20267 55012

Conditions at: KSRQ observed 23 July 2017  22:53 UTC
Temperature: 28.3°C (83°F)
Dewpoint: 23.3°C (74°F) [RH = 74%]
Pressure (altimeter): 29.98 inches Hg (1015.3 mb)
[Sea-level pressure: 1015.2 mb]
Winds: from the SSW (210 degrees) at 3 MPH (3 knots; 1.6 m/s)
Visibility: 10 or more miles (16+ km)
Ceiling: at least 12,000 feet AGL
Clouds: sky clear below 12,000 feet AGL
Present Weather: no significant weather observed at this time
KSRQ 232253Z 21003KT 10SM CLR 28/23 A2998 RMK AO2 SLP152 T02830233

Conditions at: KSRQ observed 23 July 2017  21:53 UTC
Temperature: 28.9°C (84°F)
Dewpoint: 22.8°C (73°F) [RH = 70%]
Pressure (altimeter): 30.01 inches Hg (1016.3 mb)
[Sea-level pressure: 1016.0 mb]
Winds: calm
Visibility: 10 or more miles (16+ km)
Ceiling: at least 12,000 feet AGL
Clouds: sky clear below 12,000 feet AGL
Present Weather: no significant weather observed at this time
KSRQ 232153Z 00000KT 10SM CLR 29/23 A3001 RMK AO2 SLP160 T02890228

Conditions at: KSRQ observed 23 July 2017  20:53 UTC
Temperature: 28.3°C (83°F)
Dewpoint: 22.8°C (73°F) [RH = 72%]
Pressure (altimeter): 30.02 inches Hg (1016.7 mb)
[Sea-level pressure: 1016.4 mb]
Winds: from the SW (230 degrees) at 3 MPH (3 knots; 1.6 m/s)
Visibility: 10 or more miles (16+ km)
Ceiling: at least 12,000 feet AGL
Clouds: sky clear below 12,000 feet AGL
Present Weather: no significant weather observed at this time
KSRQ 232053Z 23003KT 10SM CLR 28/23 A3002 RMK AO2 SLP164 60000 T02830228 56018

Conditions at: KSRQ observed 23 July 2017  19:53 UTC
Temperature: 29.4°C (85°F)
Dewpoint: 22.8°C (73°F) [RH = 68%]
Pressure (altimeter): 30.02 inches Hg (1016.7 mb)
[Sea-level pressure: 1016.4 mb]
Winds: calm
Visibility: 10 or more miles (16+ km)
Ceiling: at least 12,000 feet AGL
Clouds: sky clear below 12,000 feet AGL
Present Weather: no significant weather observed at this time
KSRQ 231953Z 00000KT 10SM CLR 29/23 A3002 RMK AO2 SLP164 T02940228

Conditions at: KSRQ observed 23 July 2017  18:53 UTC
Temperature: 28.3°C (83°F)
Dewpoint: 22.8°C (73°F) [RH = 72%]
Pressure (altimeter): 30.03 inches Hg (1017.0 mb)
[Sea-level pressure: 1016.9 mb]
Winds: from the NE (40 degrees) at 3 MPH (3 knots; 1.6 m/s)
Visibility: 10 or more miles (16+ km)
Ceiling: at least 12,000 feet AGL
Clouds: scattered clouds at 8500 feet AGL
Present Weather: no significant weather observed at this time
KSRQ 231853Z 04003KT 10SM SCT085 28/23 A3003 RMK AO2 LTG DSNT SE RAE1757 SLP169 P0000 T02830228

Conditions at: KSRQ observed 23 July 2017  17:53 UTC
Temperature: 26.7°C (80°F)
Dewpoint: 24.4°C (76°F) [RH = 87%]
Pressure (altimeter): 30.07 inches Hg (1018.4 mb)
[Sea-level pressure: 1018.1 mb]
Winds: from the N (350 degrees) at 3 MPH (3 knots; 1.6 m/s)
Visibility: 10 or more miles (16+ km)
Ceiling: 6500 feet AGL
Clouds: scattered clouds at 3300 feet AGL
broken clouds at 6500 feet AGL
broken clouds at 9000 feet AGL
Present Weather: -RA  (light rain)
KSRQ 231753Z 35003KT 10SM -RA SCT033 BKN065 BKN090 27/24 A3007 RMK AO2 LTG DSNT S SLP181 P0001 60043 T02670244 10267 20228 55005

Conditions at: KSRQ observed 23 July 2017  16:53 UTC
Temperature: 25.0°C (77°F)
Dewpoint: 22.8°C (73°F) [RH = 88%]
Pressure (altimeter): 30.06 inches Hg (1018.0 mb)
[Sea-level pressure: 1017.8 mb]
Winds: from the SE (130 degrees) at 5 MPH (4 knots; 2.1 m/s)
Visibility: 10 or more miles (16+ km)
Ceiling: 12000 feet AGL
Clouds: few clouds at 4700 feet AGL
scattered clouds at 10000 feet AGL
broken clouds at 12000 feet AGL
Present Weather: -RA  (light rain)
KSRQ 231653Z 13004KT 10SM -RA FEW047 SCT100 BKN120 25/23 A3006 RMK AO2 LTG DSNT SW TSE01 SLP178 P0008 T02500228

Conditions at: KSRQ observed 23 July 2017  16:07 UTC
Temperature: 23.3°C (74°F)
Dewpoint: 22.2°C (72°F) [RH = 94%]
Pressure (altimeter): 30.06 inches Hg (1018.0 mb)
Winds: from the NNW (340 degrees) at 6 MPH (5 knots; 2.6 m/s)
Visibility: 8 miles (13 km)
Ceiling: 11000 feet AGL
Clouds: few clouds at 6000 feet AGL
scattered clouds at 8000 feet AGL
broken clouds at 11000 feet AGL
Present Weather: RA  (rain)
KSRQ 231607Z 34005KT 8SM RA FEW060 SCT080 BKN110 23/22 A3006 RMK AO2 LTG DSNT SW TSE01 P0004 T02330222

Conditions at: KSRQ observed 23 July 2017  15:53 UTC
Temperature: 23.3°C (74°F)
Dewpoint: 22.2°C (72°F) [RH = 94%]
Pressure (altimeter): 30.05 inches Hg (1017.7 mb)
[Sea-level pressure: 1017.5 mb]
Winds: from the NNW (340 degrees) at 5 MPH (4 knots; 2.1 m/s)
Visibility: 10 or more miles (16+ km)
Ceiling: at least 12,000 feet AGL
Clouds: scattered clouds at 11000 feet AGL
Present Weather: -TSRA  (light rain associated with thunderstorm(s))
KSRQ 231553Z 34004KT 10SM -TSRA SCT110 23/22 A3005 RMK AO2 LTG DSNT N AND SW TSE04B05E40B46 SLP175 P0025 T02330222

Conditions at: KSRQ observed 23 July 2017  15:16 UTC
Temperature: 22.8°C (73°F)
Dewpoint: 21.7°C (71°F) [RH = 94%]
Pressure (altimeter): 30.06 inches Hg (1018.0 mb)
Winds: from the ESE (120 degrees) at 6 MPH (5 knots; 2.6 m/s)
Visibility: 4 miles (6 km)
Ceiling: 4100 feet AGL
Clouds: broken clouds at 4100 feet AGL
broken clouds at 7000 feet AGL
broken clouds at 9000 feet AGL
Present Weather: -TSRA BR  (light rain associated with thunderstorm(s), mist)
KSRQ 231516Z 12005KT 4SM -TSRA BR BKN041 BKN070 BKN090 23/22 A3006 RMK AO2 LTG DSNT NE AND SW AND W TSE04B05 P0011 T02280217

Conditions at: KSRQ observed 23 July 2017  15:03 UTC
Temperature: 22.8°C (73°F)
Dewpoint: 21.1°C (70°F) [RH = 90%]
Pressure (altimeter): 30.08 inches Hg (1018.7 mb)
Winds: calm
Visibility: 1.75 miles (2.82 km)
Ceiling: 4000 feet AGL
Clouds: broken clouds at 4000 feet AGL
broken clouds at 5000 feet AGL
overcast cloud deck at 8500 feet AGL
Present Weather: +TSRA BR  (heavy rain associated with thunderstorm(s), mist)
KSRQ 231503Z 00000KT 1 3/4SM +TSRA BR BKN040 BKN050 OVC085 23/21 A3008 RMK AO2 LTG DSNT ALQDS P0005 T02280211

Conditions at: KSRQ observed 23 July 2017  14:57 UTC
Temperature: 22.8°C (73°F)
Dewpoint: 21.1°C (70°F) [RH = 90%]
Pressure (altimeter): 30.08 inches Hg (1018.7 mb)
Winds: variable direction winds at 5 MPH (4 knots; 2.1 m/s)
Visibility: 3 miles (5 km)
Ceiling: 4000 feet AGL
Clouds: few clouds at 2500 feet AGL
broken clouds at 4000 feet AGL
overcast cloud deck at 7000 feet AGL
Present Weather: -TSRA BR  (light rain associated with thunderstorm(s), mist)
KSRQ 231457Z VRB04KT 3SM -TSRA BR FEW025 BKN040 OVC070 23/21 A3008 RMK AO2 LTG DSNT SW-N P0002 T02280211

Conditions at: KSRQ observed 23 July 2017  14:53 UTC
Temperature: 22.8°C (73°F)
Dewpoint: 21.1°C (70°F) [RH = 90%]
Pressure (altimeter): 30.08 inches Hg (1018.7 mb)
[Sea-level pressure: 1018.6 mb]
Winds: from the N (350 degrees) at 8 MPH (7 knots; 3.6 m/s)
Visibility: 1.25 miles (2.01 km)
Ceiling: 3300 feet AGL
Clouds: scattered clouds at 2100 feet AGL
broken clouds at 3300 feet AGL
overcast cloud deck at 7000 feet AGL
Present Weather: +TSRA BR  (heavy rain associated with thunderstorm(s), mist)
KSRQ 231453Z 35007KT 1 1/4SM +TSRA BR SCT021 BKN033 OVC070 23/21 A3008 RMK AO2 LTG DSNT SW-N RAB29 TSE09B29 SLP186 P0009 60009 T02280211 53013

Conditions at: KSRQ observed 23 July 2017  14:44 UTC
Temperature: 22.8°C (73°F)
Dewpoint: 21.1°C (70°F) [RH = 90%]
Pressure (altimeter): 30.09 inches Hg (1019.0 mb)
Winds: from the NNW (330 degrees) at 13 MPH (11 knots; 5.7 m/s)
Visibility: 1.75 miles (2.82 km)
Ceiling: 2800 feet AGL
Clouds: few clouds at 2100 feet AGL
broken clouds at 2800 feet AGL
overcast cloud deck at 4800 feet AGL
Present Weather: +TSRA BR  (heavy rain associated with thunderstorm(s), mist)
KSRQ 231444Z 33011KT 1 3/4SM +TSRA BR FEW021 BKN028 OVC048 23/21 A3009 RMK AO2 LTG DSNT SW-N RAB29 TSE09B29 P0005 T02280211

Conditions at: KSRQ observed 23 July 2017  14:31 UTC
Temperature: 23.9°C (75°F)
Dewpoint: 21.1°C (70°F) [RH = 84%]
Pressure (altimeter): 30.09 inches Hg (1019.0 mb)
Winds: from the NW (320 degrees) at 20 MPH (17 knots; 8.8 m/s)
gusting to 24 MPH (21 knots; 10.9 m/s)
Visibility: 5 miles (8 km)
Ceiling: 2600 feet AGL
Clouds: scattered clouds at 2100 feet AGL
broken clouds at 2600 feet AGL
broken clouds at 3300 feet AGL
Present Weather: -TSRA  (light rain associated with thunderstorm(s))
KSRQ 231431Z 32017G21KT 5SM -TSRA SCT021 BKN026 BKN033 24/21 A3009 RMK AO2 LTG DSNT ALQDS RAB29 TSE09B29 P0001 T02390211

Conditions at: KSRQ observed 23 July 2017  14:23 UTC
Temperature: 25.0°C (77°F)
Dewpoint: 22.2°C (72°F) [RH = 84%]
Pressure (altimeter): 30.07 inches Hg (1018.4 mb)
Winds: from the NNW (340 degrees) at 13 MPH (11 knots; 5.7 m/s)
Visibility: 2.50 miles (4.02 km)
Ceiling: 2800 feet AGL
Clouds: broken clouds at 2800 feet AGL
broken clouds at 5000 feet AGL
Present Weather: VCTS HZ  (thunderstorm in vicinity, haze)
KSRQ 231423Z 34011KT 2 1/2SM VCTS HZ BKN028 BKN050 25/22 A3007 RMK AO2 LTG DSNT ALQDS TSE09 T02500222

Conditions at: KSRQ observed 23 July 2017  14:15 UTC
Temperature: 25.6°C (78°F)
Dewpoint: 23.3°C (74°F) [RH = 87%]
Pressure (altimeter): 30.06 inches Hg (1018.0 mb)
Winds: from the N (10 degrees) at 12 MPH (10 knots; 5.2 m/s)
Visibility: 10 or more miles (16+ km)
Ceiling: at least 12,000 feet AGL
Clouds: scattered clouds at 2900 feet AGL
scattered clouds at 12000 feet AGL
Present Weather: VCTS  (thunderstorm in vicinity)
KSRQ 231415Z 01010KT 10SM VCTS SCT029 SCT120 26/23 A3006 RMK AO2 LTG DSNT SW-N TSE09 T02560233

Conditions at: KSRQ observed 23 July 2017  13:53 UTC
Temperature: 25.6°C (78°F)
Dewpoint: 23.3°C (74°F) [RH = 87%]
Pressure (altimeter): 30.05 inches Hg (1017.7 mb)
[Sea-level pressure: 1017.5 mb]
Winds: from the N (360 degrees) at 5 MPH (4 knots; 2.1 m/s)
Visibility: 10 or more miles (16+ km)
Ceiling: at least 12,000 feet AGL
Clouds: scattered clouds at 12000 feet AGL
Present Weather: TS  (thunderstorm)
KSRQ 231353Z 36004KT 10SM TS SCT120 26/23 A3005 RMK AO2 LTG DSNT SW-N RAB25E41 TSB06E34B51 SLP175 P0000 T02560233

Conditions at: KSRQ observed 23 July 2017  13:40 UTC
Temperature: 25.6°C (78°F)
Dewpoint: 23.3°C (74°F) [RH = 87%]
Pressure (altimeter): 30.06 inches Hg (1018.0 mb)
Winds: from the E (90 degrees) at 3 MPH (3 knots; 1.6 m/s)
Visibility: 10 or more miles (16+ km)
Ceiling: 12000 feet AGL
Clouds: few clouds at 4700 feet AGL
broken clouds at 12000 feet AGL
Present Weather: VCTS -RA  (thunderstorm in vicinity, light rain)
KSRQ 231340Z 09003KT 10SM VCTS -RA FEW047 BKN120 26/23 A3006 RMK AO2 LTG DSNT SW-N RAB25 TSB06E34 P0000 T02560233

Conditions at: KSRQ observed 23 July 2017  13:12 UTC
Temperature: 25.6°C (78°F)
Dewpoint: 23.3°C (74°F) [RH = 87%]
Pressure (altimeter): 30.04 inches Hg (1017.4 mb)
Winds: from the ESE (110 degrees) at 3 MPH (3 knots; 1.6 m/s)
Visibility: 10 or more miles (16+ km)
Ceiling: at least 12,000 feet AGL
Clouds: few clouds at 10000 feet AGL
few clouds at 12000 feet AGL
Present Weather: TS  (thunderstorm)
KSRQ 231312Z 11003KT 10SM TS FEW100 FEW120 26/23 A3004 RMK AO2 LTG DSNT W-N TSB06 T02560233

Conditions at: KSRQ observed 23 July 2017  12:53 UTC
Temperature: 25.6°C (78°F)
Dewpoint: 23.3°C (74°F) [RH = 87%]
Pressure (altimeter): 30.05 inches Hg (1017.7 mb)
[Sea-level pressure: 1017.4 mb]
Winds: from the E (90 degrees) at 3 MPH (3 knots; 1.6 m/s)
Visibility: 10 or more miles (16+ km)
Ceiling: at least 12,000 feet AGL
Clouds: few clouds at 4600 feet AGL
few clouds at 11000 feet AGL
Present Weather: VCTS  (thunderstorm in vicinity)
KSRQ 231253Z 09003KT 10SM VCTS FEW046 FEW110 26/23 A3005 RMK AO2 LTG DSNT W AND NW SLP174 T02560233

Conditions at: KSRQ observed 23 July 2017  12:50 UTC
Temperature: 26.0°C (79°F)
Dewpoint: 23.0°C (73°F) [RH = 84%]
Pressure (altimeter): 30.05 inches Hg (1017.7 mb)
Winds: calm
Visibility: 10 or more miles (16+ km)
Ceiling: at least 12,000 feet AGL
Clouds: few clouds at 4600 feet AGL
few clouds at 11000 feet AGL
Present Weather: VCTS  (thunderstorm in vicinity)
KSRQ 231250Z 00000KT 10SM VCTS FEW046 FEW110 26/23 A3005 RMK AO2 LTG DSNT W AND NW

Conditions at: KSRQ observed 23 July 2017  11:53 UTC
Temperature: 25.6°C (78°F)
Dewpoint: 23.3°C (74°F) [RH = 87%]
Pressure (altimeter): 30.01 inches Hg (1016.3 mb)
[Sea-level pressure: 1016.1 mb]
Winds: from the SSE (160 degrees) at 8 MPH (7 knots; 3.6 m/s)
Visibility: 10 or more miles (16+ km)
Ceiling: at least 12,000 feet AGL
Clouds: sky clear below 12,000 feet AGL
Present Weather: no significant weather observed at this time
KSRQ 231153Z 16007KT 10SM CLR 26/23 A3001 RMK AO2 LTG DSNT NW RAB07E17 SLP161 P0000 60000 70025 T02560233 10256 20244 53006

Conditions at: KSRQ observed 23 July 2017  11:20 UTC
Temperature: 25.0°C (77°F)
Dewpoint: 23.3°C (74°F) [RH = 90%]
Pressure (altimeter): 30.02 inches Hg (1016.7 mb)
Winds: from the SSE (160 degrees) at 7 MPH (6 knots; 3.1 m/s)
Visibility: 10 or more miles (16+ km)
Ceiling: at least 12,000 feet AGL
Clouds: few clouds at 11000 feet AGL
Present Weather: no significant weather observed at this time
KSRQ 231120Z 16006KT 10SM FEW110 25/23 A3002 RMK AO2 LTG DSNT NW RAB07E17 P0000 T02500233

Conditions at: KSRQ observed 23 July 2017  10:53 UTC
Temperature: 25.0°C (77°F)
Dewpoint: 23.3°C (74°F) [RH = 90%]
Pressure (altimeter): 30.00 inches Hg (1016.0 mb)
[Sea-level pressure: 1015.9 mb]
Winds: from the SE (140 degrees) at 9 MPH (8 knots; 4.2 m/s)
Visibility: 10 or more miles (16+ km)
Ceiling: at least 12,000 feet AGL
Clouds: sky clear below 12,000 feet AGL
Present Weather: VCTS  (thunderstorm in vicinity)
KSRQ 231053Z 14008KT 10SM VCTS CLR 25/23 A3000 RMK AO2 LTG DSNT W AND NW TSB38E53 SLP159 T02500233

Conditions at: KSRQ observed 23 July 2017  10:44 UTC
Temperature: 25.0°C (77°F)
Dewpoint: 23.3°C (74°F) [RH = 90%]
Pressure (altimeter): 30.01 inches Hg (1016.3 mb)
Winds: from the SSE (150 degrees) at 8 MPH (7 knots; 3.6 m/s)
Visibility: 10 or more miles (16+ km)
Ceiling: at least 12,000 feet AGL
Clouds: sky clear below 12,000 feet AGL
Present Weather: TS  (thunderstorm)
KSRQ 231044Z 15007KT 10SM TS CLR 25/23 A3001 RMK AO2 LTG DSNT W AND NW TSB38 T02500233

Conditions at: KSRQ observed 23 July 2017  10:17 UTC
Temperature: 24.4°C (76°F)
Dewpoint: 23.3°C (74°F) [RH = 94%]
Pressure (altimeter): 30.00 inches Hg (1016.0 mb)
Winds: from the SE (130 degrees) at 7 MPH (6 knots; 3.1 m/s)
Visibility: 10 or more miles (16+ km)
Ceiling: at least 12,000 feet AGL
Clouds: sky clear below 12,000 feet AGL
Present Weather: VCTS  (thunderstorm in vicinity)
KSRQ 231017Z 13006KT 10SM VCTS CLR 24/23 A3000 RMK AO2 LTG DSNT W-NE T02440233

Conditions at: KSRQ observed 23 July 2017  09:53 UTC
Temperature: 24.4°C (76°F)
Dewpoint: 23.3°C (74°F) [RH = 94%]
Pressure (altimeter): 30.00 inches Hg (1016.0 mb)
[Sea-level pressure: 1015.7 mb]
Winds: from the SE (130 degrees) at 9 MPH (8 knots; 4.2 m/s)
Visibility: 10 or more miles (16+ km)
Ceiling: at least 12,000 feet AGL
Clouds: sky clear below 12,000 feet AGL
Present Weather: no significant weather observed at this time
KSRQ 230953Z 13008KT 10SM CLR 24/23 A3000 RMK AO2 LTG DSNT NW SLP157 T02440233

Conditions at: KSRQ observed 23 July 2017  08:53 UTC
Temperature: 25.0°C (77°F)
Dewpoint: 23.9°C (75°F) [RH = 94%]
Pressure (altimeter): 29.99 inches Hg (1015.7 mb)
[Sea-level pressure: 1015.5 mb]
Winds: from the ESE (120 degrees) at 7 MPH (6 knots; 3.1 m/s)
Visibility: 10 or more miles (16+ km)
Ceiling: at least 12,000 feet AGL
Clouds: sky clear below 12,000 feet AGL
Present Weather: automated observation with no human augmentation;
there may or may not be significant weather present at this time
KSRQ 230853Z AUTO 12006KT 10SM CLR 25/24 A2999 RMK AO2 LTG DSNT W-N SLP155 T02500239 56015

Conditions at: KSRQ observed 23 July 2017  07:53 UTC
Temperature: 25.0°C (77°F)
Dewpoint: 23.3°C (74°F) [RH = 90%]
Pressure (altimeter): 30.00 inches Hg (1016.0 mb)
[Sea-level pressure: 1015.9 mb]
Winds: from the ESE (120 degrees) at 7 MPH (6 knots; 3.1 m/s)
Visibility: 10 or more miles (16+ km)
Ceiling: at least 12,000 feet AGL
Clouds: sky clear below 12,000 feet AGL
Present Weather: automated observation with no human augmentation;
there may or may not be significant weather present at this time
KSRQ 230753Z AUTO 12006KT 10SM CLR 25/23 A3000 RMK AO2 LTG DSNT NW SLP159 T02500233

Conditions at: KSRQ observed 23 July 2017  06:53 UTC
Temperature: 25.0°C (77°F)
Dewpoint: 23.3°C (74°F) [RH = 90%]
Pressure (altimeter): 30.02 inches Hg (1016.7 mb)
[Sea-level pressure: 1016.6 mb]
Winds: from the ESE (120 degrees) at 7 MPH (6 knots; 3.1 m/s)
Visibility: 10 or more miles (16+ km)
Ceiling: at least 12,000 feet AGL
Clouds: sky clear below 12,000 feet AGL
Present Weather: automated observation with no human augmentation;
there may or may not be significant weather present at this time
KSRQ 230653Z AUTO 12006KT 10SM CLR 25/23 A3002 RMK AO2 SLP166 T02500233

Conditions at: KSRQ observed 23 July 2017  05:53 UTC
Temperature: 25.0°C (77°F)
Dewpoint: 23.9°C (75°F) [RH = 94%]
Pressure (altimeter): 30.04 inches Hg (1017.4 mb)
[Sea-level pressure: 1017.1 mb]
Winds: from the ESE (110 degrees) at 5 MPH (4 knots; 2.1 m/s)
Visibility: 10 or more miles (16+ km)
Ceiling: at least 12,000 feet AGL
Clouds: few clouds at 2600 feet AGL
few clouds at 5000 feet AGL
Present Weather: automated observation with no human augmentation;
there may or may not be significant weather present at this time
KSRQ 230553Z AUTO 11004KT 10SM FEW026 FEW050 25/24 A3004 RMK AO2 SLP171 60006 T02500239 10272 20250 51004

Conditions at: KSRQ observed 23 July 2017  04:53 UTC
Temperature: 25.6°C (78°F)
Dewpoint: 23.9°C (75°F) [RH = 90%]
Pressure (altimeter): 30.04 inches Hg (1017.4 mb)
[Sea-level pressure: 1017.0 mb]
Winds: from the ESE (120 degrees) at 6 MPH (5 knots; 2.6 m/s)
Visibility: 10 or more miles (16+ km)
Ceiling: at least 12,000 feet AGL
Clouds: sky clear below 12,000 feet AGL
Present Weather: automated observation with no human augmentation;
there may or may not be significant weather present at this time
KSRQ 230453Z AUTO 12005KT 10SM CLR 26/24 A3004 RMK AO2 SLP170 T02560239 403060239

Conditions at: KSRQ observed 23 July 2017  03:53 UTC
Temperature: 26.1°C (79°F)
Dewpoint: 24.4°C (76°F) [RH = 90%]
Pressure (altimeter): 30.03 inches Hg (1017.0 mb)
[Sea-level pressure: 1016.7 mb]
Winds: from the SE (130 degrees) at 3 MPH (3 knots; 1.6 m/s)
Visibility: 10 or more miles (16+ km)
Ceiling: at least 12,000 feet AGL
Clouds: sky clear below 12,000 feet AGL
Present Weather: automated observation with no human augmentation;
there may or may not be significant weather present at this time
KSRQ 230353Z AUTO 13003KT 10SM CLR 26/24 A3003 RMK AO2 RAB02E15 SLP167 P0000 T02610244

Conditions at: KSRQ observed 23 July 2017  02:53 UTC
Temperature: 26.1°C (79°F)
Dewpoint: 24.4°C (76°F) [RH = 90%]
Pressure (altimeter): 30.03 inches Hg (1017.0 mb)
[Sea-level pressure: 1016.7 mb]
Winds: from the ESE (120 degrees) at 5 MPH (4 knots; 2.1 m/s)
Visibility: 10 or more miles (16+ km)
Ceiling: at least 12,000 feet AGL
Clouds: few clouds at 6000 feet AGL
few clouds at 10000 feet AGL
Present Weather: no significant weather observed at this time
KSRQ 230253Z 12004KT 10SM FEW060 FEW100 26/24 A3003 RMK AO2 RAE0157 SLP167 P0000 60006 T02610244 56005

Conditions at: KSRQ observed 23 July 2017  01:53 UTC
Temperature: 26.1°C (79°F)
Dewpoint: 24.4°C (76°F) [RH = 90%]
Pressure (altimeter): 30.03 inches Hg (1017.0 mb)
[Sea-level pressure: 1016.8 mb]
Winds: calm
Visibility: 10 or more miles (16+ km)
Ceiling: at least 12,000 feet AGL
Clouds: sky clear below 12,000 feet AGL
Present Weather: -RA  (light rain)
KSRQ 230153Z 00000KT 10SM -RA CLR 26/24 A3003 RMK AO2 LTG DSNT W RAB09 SLP168 P0000 T02610244

Conditions at: KSRQ observed 23 July 2017  00:53 UTC
Temperature: 26.7°C (80°F)
Dewpoint: 24.4°C (76°F) [RH = 87%]
Pressure (altimeter): 30.04 inches Hg (1017.4 mb)
[Sea-level pressure: 1017.1 mb]
Winds: from the NE (50 degrees) at 3 MPH (3 knots; 1.6 m/s)
Visibility: 10 or more miles (16+ km)
Ceiling: at least 12,000 feet AGL
Clouds: few clouds at 9000 feet AGL
scattered clouds at 11000 feet AGL
Present Weather: no significant weather observed at this time
KSRQ 230053Z 05003KT 10SM FEW090 SCT110 27/24 A3004 RMK AO2 LTG DSNT W AND NW RAB00E45 TSB01E16 SLP171 P0006 T02670244

Conditions at: KSRQ observed 23 July 2017  00:18 UTC
Temperature: 26.7°C (80°F)
Dewpoint: 24.4°C (76°F) [RH = 87%]
Pressure (altimeter): 30.04 inches Hg (1017.4 mb)
Winds: from the SE (140 degrees) at 3 MPH (3 knots; 1.6 m/s)
Visibility: 5 miles (8 km)
Ceiling: 8000 feet AGL
Clouds: scattered clouds at 6000 feet AGL
broken clouds at 8000 feet AGL
broken clouds at 10000 feet AGL
Present Weather: -RA BR  (light rain, mist)
KSRQ 230018Z 14003KT 5SM -RA BR SCT060 BKN080 BKN100 27/24 A3004 RMK AO2 RAB00 TSB01E16 P0004 T02670244

Conditions at: KSRQ observed 23 July 2017  00:07 UTC
Temperature: 26.7°C (80°F)
Dewpoint: 24.4°C (76°F) [RH = 87%]
Pressure (altimeter): 30.05 inches Hg (1017.7 mb)
Winds: calm
Visibility: 6 miles (10 km)
Ceiling: 10000 feet AGL
Clouds: scattered clouds at 6000 feet AGL
scattered clouds at 7500 feet AGL
broken clouds at 10000 feet AGL
Present Weather: TSRA BR  (rain associated with thunderstorm(s), mist)
KSRQ 230007Z 00000KT 6SM TSRA BR SCT060 SCT075 BKN100 27/24 A3005 RMK AO2 RAB00 TSB01 P0001 T02670244

Conditions at: KSRQ observed 22 July 2017  23:53 UTC
Temperature: 27.2°C (81°F)
Dewpoint: 23.9°C (75°F) [RH = 82%]
Pressure (altimeter): 30.04 inches Hg (1017.4 mb)
[Sea-level pressure: 1017.2 mb]
Winds: from the E (100 degrees) at 5 MPH (4 knots; 2.1 m/s)
Visibility: 10 or more miles (16+ km)
Ceiling: at least 12,000 feet AGL
Clouds: few clouds at 10000 feet AGL
Present Weather: VCTS  (thunderstorm in vicinity)
KSRQ 222353Z 10004KT 10SM VCTS FEW100 27/24 A3004 RMK AO2 LTG DSNT NW SLP172 60000 T02720239 10306 20256 50002

Conditions at: KSRQ observed 22 July 2017  23:49 UTC
Temperature: 27.0°C (81°F)
Dewpoint: 24.0°C (75°F) [RH = 84%]
Pressure (altimeter): 30.04 inches Hg (1017.4 mb)
Winds: from the E (90 degrees) at 3 MPH (3 knots; 1.6 m/s)
Visibility: 10 or more miles (16+ km)
Ceiling: at least 12,000 feet AGL
Clouds: few clouds at 11000 feet AGL
Present Weather: VCTS  (thunderstorm in vicinity)
KSRQ 222349Z 09003KT 10SM VCTS FEW110 27/24 A3004 RMK AO2 LTG DSNT NW

Conditions at: KSRQ observed 22 July 2017  22:53 UTC
Temperature: 27.2°C (81°F)
Dewpoint: 23.3°C (74°F) [RH = 79%]
Pressure (altimeter): 30.04 inches Hg (1017.4 mb)
[Sea-level pressure: 1017.1 mb]
Winds: from the E (90 degrees) at 5 MPH (4 knots; 2.1 m/s)
Visibility: 10 or more miles (16+ km)
Ceiling: at least 12,000 feet AGL
Clouds: sky clear below 12,000 feet AGL
Present Weather: no significant weather observed at this time
KSRQ 222253Z 09004KT 10SM CLR 27/23 A3004 RMK AO2 LTG DSNT E SLP171 T02720233

Conditions at: KSRQ observed 22 July 2017  21:53 UTC
Temperature: 26.7°C (80°F)
Dewpoint: 23.3°C (74°F) [RH = 82%]
Pressure (altimeter): 30.03 inches Hg (1017.0 mb)
[Sea-level pressure: 1017.0 mb]
Winds: calm
Visibility: 10 or more miles (16+ km)
Ceiling: at least 12,000 feet AGL
Clouds: sky clear below 12,000 feet AGL
Present Weather: no significant weather observed at this time
KSRQ 222153Z 00000KT 10SM CLR 27/23 A3003 RMK AO2 LTG DSNT W RAB05E40 SLP170 P0000 T02670233

Conditions at: KSRQ observed 22 July 2017  20:53 UTC
Temperature: 26.1°C (79°F)
Dewpoint: 21.7°C (71°F) [RH = 77%]
Pressure (altimeter): 30.03 inches Hg (1017.0 mb)
[Sea-level pressure: 1016.7 mb]
Winds: calm
Visibility: 10 or more miles (16+ km)
Ceiling: at least 12,000 feet AGL
Clouds: sky clear below 12,000 feet AGL
Present Weather: no significant weather observed at this time
KSRQ 222053Z 00000KT 10SM CLR 26/22 A3003 RMK AO2 LTG DSNT NW SLP167 T02610217 58011

Conditions at: KSRQ observed 22 July 2017  20:06 UTC
Temperature: 26.7°C (80°F)
Dewpoint: 21.7°C (71°F) [RH = 74%]
Pressure (altimeter): 30.03 inches Hg (1017.0 mb)
Winds: from the W (260 degrees) at 6 MPH (5 knots; 2.6 m/s)
Visibility: 10 or more miles (16+ km)
Ceiling: at least 12,000 feet AGL
Clouds: scattered clouds at 1900 feet AGL
scattered clouds at 3300 feet AGL
Present Weather: no significant weather observed at this time
KSRQ 222006Z 26005KT 10SM SCT019 SCT033 27/22 A3003 RMK AO2 LTG DSNT NE PRESFR T02670217

Conditions at: KSRQ observed 22 July 2017  19:53 UTC
Temperature: 26.7°C (80°F)
Dewpoint: 22.2°C (72°F) [RH = 76%]
Pressure (altimeter): 30.05 inches Hg (1017.7 mb)
[Sea-level pressure: 1017.5 mb]
Winds: from the NW (320 degrees) at 12 MPH (10 knots; 5.2 m/s)
gusting to 23 MPH (20 knots; 10.4 m/s)
Visibility: 10 or more miles (16+ km)
Ceiling: 1900 feet AGL
Clouds: broken clouds at 1900 feet AGL
broken clouds at 7500 feet AGL
Present Weather: VCTS  (thunderstorm in vicinity)
KSRQ 221953Z 32010G20KT 10SM VCTS BKN019 BKN075 27/22 A3005 RMK AO2 LTG DSNT NE SLP175 T02670222

Conditions at: KSRQ observed 22 July 2017  19:09 UTC
Temperature: 28.9°C (84°F)
Dewpoint: 23.9°C (75°F) [RH = 74%]
Pressure (altimeter): 30.04 inches Hg (1017.4 mb)
Winds: from the SSW (210 degrees) at 8 MPH (7 knots; 3.6 m/s)
Visibility: 10 or more miles (16+ km)
Ceiling: at least 12,000 feet AGL
Clouds: sky clear below 12,000 feet AGL
Present Weather: VCTS  (thunderstorm in vicinity)
KSRQ 221909Z 21007KT 10SM VCTS CLR 29/24 A3004 RMK AO2 LTG DSNT ALQDS T02890239

Conditions at: KSRQ observed 22 July 2017  18:53 UTC
Temperature: 29.4°C (85°F)
Dewpoint: 22.8°C (73°F) [RH = 68%]
Pressure (altimeter): 30.06 inches Hg (1018.0 mb)
[Sea-level pressure: 1017.9 mb]
Winds: from the SSW (210 degrees) at 10 MPH (9 knots; 4.7 m/s)
Visibility: 10 or more miles (16+ km)
Ceiling: at least 12,000 feet AGL
Clouds: scattered clouds at 4000 feet AGL
Present Weather: no significant weather observed at this time
KSRQ 221853Z 21009KT 10SM SCT040 29/23 A3006 RMK AO2 LTG DSNT ALQDS SLP179 T02940228

Conditions at: KSRQ observed 22 July 2017  18:51 UTC
Temperature: 29.0°C (84°F)
Dewpoint: 23.0°C (73°F) [RH = 70%]
Pressure (altimeter): 30.06 inches Hg (1018.0 mb)
Winds: from the SSW (200 degrees) at 10 MPH (9 knots; 4.7 m/s)
Visibility: 10 or more miles (16+ km)
Ceiling: at least 12,000 feet AGL
Clouds: sky clear below 12,000 feet AGL
Present Weather: automated observation with no human augmentation;
there may or may not be significant weather present at this time
KSRQ 221851Z AUTO 20009KT 10SM CLR 29/23 A3006 RMK AO2 LTG DSNT ALQDS

Conditions at: KSRQ observed 22 July 2017  18:03 UTC
Temperature: 30.0°C (86°F)
Dewpoint: 23.9°C (75°F) [RH = 70%]
Pressure (altimeter): 30.07 inches Hg (1018.4 mb)
Winds: from the SSW (210 degrees) at 12 MPH (10 knots; 5.2 m/s)
Visibility: 10 or more miles (16+ km)
Ceiling: at least 12,000 feet AGL
Clouds: sky clear below 12,000 feet AGL
Present Weather: VCTS  (thunderstorm in vicinity)
KSRQ 221803Z 21010KT 10SM VCTS CLR 30/24 A3007 RMK AO2 LTG DSNT N AND NW T03000239

Conditions at: KSRQ observed 22 July 2017  17:53 UTC
Temperature: 30.6°C (87°F)
Dewpoint: 23.9°C (75°F) [RH = 68%]
Pressure (altimeter): 30.07 inches Hg (1018.4 mb)
[Sea-level pressure: 1018.1 mb]
Winds: from the S (190 degrees) at 12 MPH (10 knots; 5.2 m/s)
Visibility: 10 or more miles (16+ km)
Ceiling: at least 12,000 feet AGL
Clouds: sky clear below 12,000 feet AGL
Present Weather: no significant weather observed at this time
KSRQ 221753Z 19010KT 10SM CLR 31/24 A3007 RMK AO2 LTG DSNT NW SLP181 60019 T03060239 10306 20239 56011

Conditions at: KSRQ observed 22 July 2017  16:53 UTC
Temperature: 27.8°C (82°F)
Dewpoint: 23.3°C (74°F) [RH = 77%]
Pressure (altimeter): 30.07 inches Hg (1018.4 mb)
[Sea-level pressure: 1018.2 mb]
Winds: from the SSE (160 degrees) at 8 MPH (7 knots; 3.6 m/s)
Visibility: 10 or more miles (16+ km)
Ceiling: at least 12,000 feet AGL
Clouds: sky clear below 12,000 feet AGL
Present Weather: no significant weather observed at this time
KSRQ 221653Z 16007KT 10SM CLR 28/23 A3007 RMK AO2 RAE1556 SLP182 P0000 T02780233

Conditions at: KSRQ observed 22 July 2017  15:53 UTC
Temperature: 25.6°C (78°F)
Dewpoint: 23.3°C (74°F) [RH = 87%]
Pressure (altimeter): 30.09 inches Hg (1019.0 mb)
[Sea-level pressure: 1018.9 mb]
Winds: from the SE (130 degrees) at 7 MPH (6 knots; 3.1 m/s)
Visibility: 10 or more miles (16+ km)
Ceiling: at least 12,000 feet AGL
Clouds: scattered clouds at 3900 feet AGL
Present Weather: -RA  (light rain)
KSRQ 221553Z 13006KT 10SM -RA SCT039 26/23 A3009 RMK AO2 LTG DSNT W SLP189 P0002 T02560233

Conditions at: KSRQ observed 22 July 2017  14:53 UTC
Temperature: 24.4°C (76°F)
Dewpoint: 22.2°C (72°F) [RH = 88%]
Pressure (altimeter): 30.10 inches Hg (1019.4 mb)
[Sea-level pressure: 1019.2 mb]
Winds: from the ESE (110 degrees) at 3 MPH (3 knots; 1.6 m/s)
Visibility: 10 or more miles (16+ km)
Ceiling: 11000 feet AGL
Clouds: broken clouds at 11000 feet AGL
Present Weather: -RA  (light rain)
KSRQ 221453Z 11003KT 10SM -RA BKN110 24/22 A3010 RMK AO2 LTG DSNT ALQDS SLP192 P0001 60017 T02440222 53009

Conditions at: KSRQ observed 22 July 2017  14:17 UTC
Temperature: 24.4°C (76°F)
Dewpoint: 22.2°C (72°F) [RH = 88%]
Pressure (altimeter): 30.09 inches Hg (1019.0 mb)
Winds: from the ESE (110 degrees) at 5 MPH (4 knots; 2.1 m/s)
Visibility: 10 or more miles (16+ km)
Ceiling: at least 12,000 feet AGL
Clouds: few clouds at 5500 feet AGL
few clouds at 7000 feet AGL
Present Weather: -RA  (light rain)
KSRQ 221417Z 11004KT 10SM -RA FEW055 FEW070 24/22 A3009 RMK AO2 LTG DSNT ALQDS P0000 T02440222

Conditions at: KSRQ observed 22 July 2017  13:53 UTC
Temperature: 23.9°C (75°F)
Dewpoint: 21.7°C (71°F) [RH = 88%]
Pressure (altimeter): 30.09 inches Hg (1019.0 mb)
[Sea-level pressure: 1018.9 mb]
Winds: from the ENE (70 degrees) at 5 MPH (4 knots; 2.1 m/s)
Visibility: 10 or more miles (16+ km)
Ceiling: 7500 feet AGL
Clouds: scattered clouds at 6000 feet AGL
broken clouds at 7500 feet AGL
Present Weather: VCTS -RA  (thunderstorm in vicinity, light rain)
KSRQ 221353Z 07004KT 10SM VCTS -RA SCT060 BKN075 24/22 A3009 RMK AO2 LTG DSNT ALQDS RAB1257 TSE48 SLP189 P0016 T02390217

Conditions at: KSRQ observed 22 July 2017  13:26 UTC
Temperature: 23.9°C (75°F)
Dewpoint: 22.2°C (72°F) [RH = 90%]
Pressure (altimeter): 30.10 inches Hg (1019.4 mb)
Winds: from the S (180 degrees) at 9 MPH (8 knots; 4.2 m/s)
Visibility: 6 miles (10 km)
Ceiling: 7500 feet AGL
Clouds: few clouds at 4900 feet AGL
broken clouds at 7500 feet AGL
broken clouds at 9000 feet AGL
Present Weather: -TSRA BR  (light rain associated with thunderstorm(s), mist)
KSRQ 221326Z 18008KT 6SM -TSRA BR FEW049 BKN075 BKN090 24/22 A3010 RMK AO2 LTG DSNT ALQDS RAB1257 P0015 T02390222

Conditions at: KSRQ observed 22 July 2017  13:02 UTC
Temperature: 25.6°C (78°F)
Dewpoint: 23.9°C (75°F) [RH = 90%]
Pressure (altimeter): 30.09 inches Hg (1019.0 mb)
Winds: from the S (190 degrees) at 17 MPH (15 knots; 7.8 m/s)
gusting to 23 MPH (20 knots; 10.4 m/s)
Visibility: 2.50 miles (4.02 km)
Ceiling: 3100 feet AGL
Clouds: scattered clouds at 1200 feet AGL
broken clouds at 3100 feet AGL
broken clouds at 5000 feet AGL
Present Weather: +TSRA BR  (heavy rain associated with thunderstorm(s), mist)
KSRQ 221302Z 19015G20KT 2 1/2SM +TSRA BR SCT012 BKN031 BKN050 26/24 A3009 RMK AO2 LTG DSNT ALQDS RAB1257 P0003 T02560239

Conditions at: KSRQ observed 22 July 2017  12:53 UTC
Temperature: 26.7°C (80°F)
Dewpoint: 25.0°C (77°F) [RH = 90%]
Pressure (altimeter): 30.08 inches Hg (1018.7 mb)
[Sea-level pressure: 1018.5 mb]
Winds: from the SW (220 degrees) at 6 MPH (5 knots; 2.6 m/s)
Visibility: 10 or more miles (16+ km)
Ceiling: 4800 feet AGL
Clouds: few clouds at 1200 feet AGL
scattered clouds at 2800 feet AGL
broken clouds at 4800 feet AGL
Present Weather: TS  (thunderstorm)
KSRQ 221253Z 22005KT 10SM TS FEW012 SCT028 BKN048 27/25 A3008 RMK AO2 LTG DSNT ALQDS RAE1154 TSE18B45 SLP185 P0000 T02670250

Conditions at: KSRQ observed 22 July 2017  12:51 UTC
Temperature: 27.0°C (81°F)
Dewpoint: 25.0°C (77°F) [RH = 89%]
Pressure (altimeter): 30.07 inches Hg (1018.4 mb)
Winds: variable direction winds at 3 MPH (3 knots; 1.6 m/s)
Visibility: 10 or more miles (16+ km)
Ceiling: 4800 feet AGL
Clouds: few clouds at 1400 feet AGL
scattered clouds at 2800 feet AGL
broken clouds at 4800 feet AGL
Present Weather: TS  (thunderstorm)
KSRQ 221251Z VRB03KT 10SM TS FEW014 SCT028 BKN048 27/25 A3007 RMK AO2 LTG DSNT ALQDS RAE1154 TSE18B45 P0000

Conditions at: KSRQ observed 22 July 2017  12:24 UTC
Temperature: 26.7°C (80°F)
Dewpoint: 25.0°C (77°F) [RH = 90%]
Pressure (altimeter): 30.06 inches Hg (1018.0 mb)
Winds: from the ESE (120 degrees) at 3 MPH (3 knots; 1.6 m/s)
Visibility: 10 or more miles (16+ km)
Ceiling: 4600 feet AGL
Clouds: scattered clouds at 3700 feet AGL
broken clouds at 4600 feet AGL
broken clouds at 6500 feet AGL
Present Weather: VCTS  (thunderstorm in vicinity)
KSRQ 221224Z 12003KT 10SM VCTS SCT037 BKN046 BKN065 27/25 A3006 RMK AO2 LTG DSNT ALQDS RAE1154 TSE18 P0000 T02670250

Conditions at: KSRQ observed 22 July 2017  11:53 UTC
Temperature: 26.7°C (80°F)
Dewpoint: 25.0°C (77°F) [RH = 90%]
Pressure (altimeter): 30.06 inches Hg (1018.0 mb)
[Sea-level pressure: 1017.9 mb]
Winds: from the SSE (150 degrees) at 6 MPH (5 knots; 2.6 m/s)
Visibility: 10 or more miles (16+ km)
Ceiling: 3900 feet AGL
Clouds: scattered clouds at 1700 feet AGL
broken clouds at 3900 feet AGL
broken clouds at 5000 feet AGL
Present Weather: -TSRA  (light rain associated with thunderstorm(s))
KSRQ 221153Z 15005KT 10SM -TSRA SCT017 BKN039 BKN050 27/25 A3006 RMK AO2 LTG DSNT N AND S AND NW RAB03 TSB48 SLP179 P0025 60025 70026 T02670250 10267 20250 53021

Conditions at: KSRQ observed 22 July 2017  11:41 UTC
Temperature: 26.1°C (79°F)
Dewpoint: 24.4°C (76°F) [RH = 90%]
Pressure (altimeter): 30.06 inches Hg (1018.0 mb)
Winds: from the SSE (160 degrees) at 7 MPH (6 knots; 3.1 m/s)
Visibility: 3 miles (5 km)
Ceiling: 4000 feet AGL
Clouds: scattered clouds at 1900 feet AGL
broken clouds at 4000 feet AGL
broken clouds at 6000 feet AGL
Present Weather: VCTS -RA BR  (thunderstorm in vicinity, light rain, mist)
KSRQ 221141Z 16006KT 3SM VCTS -RA BR SCT019 BKN040 BKN060 26/24 A3006 RMK AO2 LTG DSNT N AND S AND NW RAB03 P0020 T02610244

Conditions at: KSRQ observed 22 July 2017  11:28 UTC
Temperature: 26.1°C (79°F)
Dewpoint: 24.4°C (76°F) [RH = 90%]
Pressure (altimeter): 30.05 inches Hg (1017.7 mb)
Winds: from the S (170 degrees) at 10 MPH (9 knots; 4.7 m/s)
Visibility: 1.75 miles (2.82 km)
Ceiling: 4300 feet AGL
Clouds: few clouds at 1200 feet AGL
broken clouds at 4300 feet AGL
overcast cloud deck at 5000 feet AGL
Present Weather: VCTS RA BR  (thunderstorm in vicinity, rain, mist)
KSRQ 221128Z 17009KT 1 3/4SM VCTS RA BR FEW012 BKN043 OVC050 26/24 A3005 RMK AO2 VIS 3/4V5 LTG DSNT S AND NW RAB03 P0009 T02610244

Conditions at: KSRQ observed 22 July 2017  10:53 UTC
Temperature: 25.0°C (77°F)
Dewpoint: 23.9°C (75°F) [RH = 94%]
Pressure (altimeter): 30.03 inches Hg (1017.0 mb)
[Sea-level pressure: 1016.7 mb]
Winds: from the ESE (120 degrees) at 7 MPH (6 knots; 3.1 m/s)
Visibility: 10 or more miles (16+ km)
Ceiling: at least 12,000 feet AGL
Clouds: sky clear below 12,000 feet AGL
Present Weather: VCTS  (thunderstorm in vicinity)
KSRQ 221053Z 12006KT 10SM VCTS CLR 25/24 A3003 RMK AO2 LTG DSNT NW SLP167 T02500239

Conditions at: KSRQ observed 22 July 2017  09:53 UTC
Temperature: 25.0°C (77°F)
Dewpoint: 23.3°C (74°F) [RH = 90%]
Pressure (altimeter): 30.01 inches Hg (1016.3 mb)
[Sea-level pressure: 1016.2 mb]
Winds: from the SE (140 degrees) at 8 MPH (7 knots; 3.6 m/s)
Visibility: 10 or more miles (16+ km)
Ceiling: at least 12,000 feet AGL
Clouds: sky clear below 12,000 feet AGL
Present Weather: no significant weather observed at this time
KSRQ 220953Z 14007KT 10SM CLR 25/23 A3001 RMK AO2 LTG DSNT N AND SW SLP162 T02500233

Conditions at: KSRQ observed 22 July 2017  08:53 UTC
Temperature: 25.0°C (77°F)
Dewpoint: 23.3°C (74°F) [RH = 90%]
Pressure (altimeter): 30.00 inches Hg (1016.0 mb)
[Sea-level pressure: 1015.8 mb]
Winds: from the SE (140 degrees) at 5 MPH (4 knots; 2.1 m/s)
Visibility: 10 or more miles (16+ km)
Ceiling: at least 12,000 feet AGL
Clouds: sky clear below 12,000 feet AGL
Present Weather: no significant weather observed at this time
KSRQ 220853Z 14004KT 10SM CLR 25/23 A3000 RMK AO2 LTG DSNT NW SLP158 T02500233 56013